• Join FlightAware (Why Join?)
  • Login
  • US Flag 
10:36AM EST


 

Airport Tracker/Info


-or-


 

Live Flight TrackerFlight Track Log ✈ N866NN ✈ 07-May-2012 ✈ KMIA - KIAH

Flight Track Log - Related Links

Times and Time Zones

All times are in EDT time to prevent confusion due to time zone crossing. See the N866NN flight status page for this flight to view local times or setup timezone preferences in your user account.

Time Position Orientation Groundspeed Altitude Reporting Facility
EDT Latitude Longitude Course Direction KTS MPH feet Rate Location/Type
03:02PM 25.8272 -80.3416 110° East  Level FlightAware Approximate
03:02PM 25.8006 -80.2606 341° North 105 121 900  Level Miami Center
03:08PM 26.0200 -80.3456 284° West 265 305 10,600 1,800 Climbing Miami Center
03:09PM 26.0425 -80.4478 284° West 300 345 12,200 2,280 Climbing Miami Center
03:10PM 26.0669 -80.5572 293° West 339 390 15,200 2,820 Climbing Miami Center
03:11PM 26.1061 -80.6603 319° Northwest 359 413 17,900 2,400 Climbing Miami Center
03:12PM 26.1875 -80.7392 317° Northwest 372 428 20,000 2,100 Climbing Miami Center
03:13PM 26.2708 -80.8253 318° Northwest 391 450 22,200 1,980 Climbing Miami Center
03:14PM 26.3542 -80.9094 317° Northwest 405 466 24,000 1,740 Climbing Miami Center
03:15PM 26.4394 -80.9981 319° Northwest 416 479 25,700 960 Climbing Miami Center
03:16PM 26.5289 -81.0847 317° Northwest 416 479 26,000 120 Climbing Miami Center
03:17PM 26.6058 -81.1642 318° Northwest 416 479 26,000 120 Level Miami Center
03:18PM 26.6931 -81.2533 317° Northwest 421 484 26,300 360 Climbing Miami Center
03:19PM 26.7881 -81.3522 307° West 426 490 26,800 660 Climbing Miami Center
03:20PM 26.8600 -81.4575 299° West 420 483 27,700 900 Climbing Miami Center
03:21PM 26.9167 -81.5739 299° West 420 483 28,600 900 Climbing Miami Center
03:22PM 26.9697 -81.6808 299° West 431 496 29,600 1,380 Climbing Miami Center
03:23PM 27.0283 -81.7975 290° West 431 496 31,400 1,680 Climbing Miami Center
03:24PM 27.0717 -81.9344 286° West 431 496 33,000 1,440 Climbing Miami Center
03:25PM 27.1047 -82.0619 286° West 431 496 34,300 1,200 Climbing Miami Center
03:26PM 27.1375 -82.1894 288° West 426 490 35,500 840 Climbing Miami Center
03:27PM 27.1744 -82.3169 286° West 426 490 36,000 180 Climbing Miami Center
03:28PM 27.2053 -82.4397 284° West 426 490 35,900 -60 Descending Miami Center
03:29PM 27.2286 -82.5414 285° West 426 490 35,900  Level Miami Center
03:30PM 27.2642 -82.6925 286° West 418 481 36,000  Climbing Miami Center
03:31PM 27.2931 -82.8061 287° West 418 481 36,000  Level Miami Center
03:32PM 27.3308 -82.9481 285° West 423 487 36,000  Level Miami Center
03:33PM 27.3611 -83.0736 286° West 423 487 36,000  Level Miami Center
03:34PM 27.3931 -83.2014 286° West 423 487 36,000 -60 Level Miami Center
03:35PM 27.4250 -83.3272 285° West 423 487 35,900  Descending Miami Center
03:36PM 27.4564 -83.4597 285° West 423 487 36,000  Climbing Miami Center
03:37PM 27.4861 -83.5856 285° West 423 487 36,000  Level Miami Center
03:38PM 27.5175 -83.7158 285° West 423 487 36,000  Level Miami Center
03:39PM 27.5489 -83.8442 286° West 423 487 36,000  Level Miami Center
03:42PM 27.6442 -84.2317 285° West 423 487 36,000  Level Miami Center
03:43PM 27.6753 -84.3600 289° West 423 487 36,000  Level Miami Center
03:43PM 27.6983 -84.4369 282° West 423 487 36,000  Level Jacksonville Center
03:44PM 27.7217 -84.5661 281° West 423 487 36,000 -60 Level Jacksonville Center
03:45PM 27.7431 -84.6956 287° West 423 487 35,900  Descending Jacksonville Center
03:47PM 27.8103 -84.9406 283° West 429 494 36,000  Climbing Jacksonville Center
03:48PM 27.8372 -85.0703 287° West 429 494 35,900  Descending Jacksonville Center
03:49PM 27.8706 -85.1978 285° West 429 494 36,000  Climbing Jacksonville Center
03:50PM 27.9017 -85.3300 291° West 429 494 35,900  Descending Jacksonville Center
03:51PM 27.9411 -85.4483 288° West 429 494 36,000  Climbing Jacksonville Center
03:52PM 27.9781 -85.5761 290° West 423 487 36,000 -60 Level Jacksonville Center
03:53PM 28.0172 -85.6994 289° West 423 487 35,900  Descending Jacksonville Center
03:54PM 28.0558 -85.8297 289° West 429 494 36,000  Climbing Jacksonville Center
03:55PM 28.0928 -85.9486 288° West 429 494 36,000  Level Jacksonville Center
03:57PM 28.1678 -86.2075 289° West 430 495 36,000  Level Jacksonville Center
03:58PM 28.2061 -86.3358 289° West 429 494 36,000 -60 Level Jacksonville Center
03:59PM 28.2444 -86.4619 289° West 429 494 35,900  Descending Jacksonville Center
04:00PM 28.2825 -86.5858 287° West 424 488 36,000  Climbing Jacksonville Center
04:01PM 28.3164 -86.7119 289° West 429 494 36,000  Level Jacksonville Center
04:02PM 28.3564 -86.8408 288° West 429 494 36,000  Level Jacksonville Center
04:03PM 28.3942 -86.9697 287° West 423 487 36,000  Level Jacksonville Center
04:04PM 28.4278 -87.0914 288° West 428 493 36,000  Level Jacksonville Center
04:05PM 28.4650 -87.2228 288° West 428 493 36,000  Level Jacksonville Center
04:06PM 28.5006 -87.3447 288° West 428 493 36,000  Level Jacksonville Center
04:07PM 28.5397 -87.4789 276° West 428 493 36,000  Level Jacksonville Center
04:08PM 28.5486 -87.5783 294° West 433 498 36,000  Level Jacksonville Center
04:10PM 28.6361 -87.8050 286° West 434 499 36,000  Level Houston Center
04:11PM 28.6667 -87.9269 288° West 424 488 36,000  Level Houston Center
04:12PM 28.7033 -88.0536 280° West 419 482 36,000  Level Houston Center
04:13PM 28.7233 -88.1808 277° West 414 476 36,000 -60 Level Houston Center
04:14PM 28.7369 -88.3106 277° West 414 476 35,900 -60 Descending Houston Center
04:15PM 28.7506 -88.4406 274° West 419 482 35,900  Level Houston Center
04:16PM 28.7581 -88.5753 273° West 425 489 36,000  Climbing Houston Center
04:17PM 28.7650 -88.7103 275° West 425 489 35,900  Descending Houston Center
04:18PM 28.7742 -88.8428 269° West 420 483 36,000  Climbing Houston Center
04:19PM 28.7725 -88.9708 253° West 420 483 36,000 -60 Level Houston Center
04:20PM 28.7375 -89.1042 254° West 420 483 35,900  Descending Houston Center
04:21PM 28.7044 -89.2331 254° West 420 483 36,000  Climbing Houston Center
04:22PM 28.6731 -89.3592 254° West 420 483 35,900  Descending Houston Center
04:23PM 28.6397 -89.4878 253° West 425 489 36,000  Climbing Houston Center
04:24PM 28.6061 -89.6139 255° West 425 489 36,000  Level Houston Center
04:25PM 28.5747 -89.7447 251° West 425 489 36,000  Level Houston Center
04:26PM 28.5367 -89.8683 247° West 419 482 36,000 -60 Level Houston Center
04:27PM 28.4900 -89.9919 248° West 419 482 35,900  Descending Houston Center
04:28PM 28.4456 -90.1178 247° West 425 489 36,000  Climbing Houston Center
04:29PM 28.4011 -90.2392 249° West 431 496 36,000  Level Houston Center
04:30PM 28.3583 -90.3647 251° West 431 496 36,000 -60 Level Houston Center
04:31PM 28.3219 -90.4881 287° West 431 496 35,900 -60 Descending Houston Center
04:32PM 28.3564 -90.6197 304° West 402 463 35,900  Level Houston Center
04:33PM 28.4197 -90.7278 304° West 411 473 36,000  Climbing Houston Center
04:34PM 28.4853 -90.8383 305° West 403 464 35,900 -60 Descending Houston Center
04:35PM 28.5506 -90.9442 304° West 411 473 35,900  Level Houston Center
04:36PM 28.6097 -91.0433 304° West 416 479 35,900  Level Houston Center
04:37PM 28.6747 -91.1519 305° West 416 479 36,000  Climbing Houston Center
04:38PM 28.7378 -91.2558 281° West 416 479 36,000  Level Houston Center
04:39PM 28.7611 -91.3886 258° West 405 466 36,000  Level Houston Center
04:40PM 28.7261 -91.5778 266° West 423 487 36,000  Level FlightAware ADS-B
04:40PM 28.7245 -91.6041 275° West 419 482 36,000  Level FlightAware ADS-B
04:40PM 28.7267 -91.6334 281° West 416 479 36,000  Level FlightAware ADS-B
04:40PM 28.7289 -91.6458 286° West 415 478 36,000  Level FlightAware ADS-B
04:40PM 28.7334 -91.6638 293° West 414 476 36,000  Level FlightAware ADS-B
04:41PM 28.7410 -91.6845 308° West 414 476 36,000  Level FlightAware ADS-B
04:41PM 28.7959 -91.7637 176° South 415 478 36,000 -120 Level FlightAware ADS-B
04:42PM 28.7886 -91.7631 314° West 396 456 35,900  Descending Houston Center
04:43PM 28.8678 -91.8581 314° West 397 457 36,000  Climbing Houston Center
04:44PM 29.0004 -92.0149 313° West 414 476 36,000  Level FlightAware ADS-B
04:45PM 29.0734 -92.1058 314° West 414 476 36,000  Level FlightAware ADS-B
04:46PM 29.1410 -92.1863 323° Northwest 416 479 36,000  Level FlightAware ADS-B
04:46PM 29.1900 -92.2287 323° Northwest 417 480 36,000  Level FlightAware ADS-B
04:47PM 29.2791 -92.3049 323° Northwest 417 480 36,000  Level FlightAware ADS-B
04:48PM 29.3255 -92.3448 323° Northwest 416 479 36,000  Level FlightAware ADS-B
04:49PM 29.3879 -92.3986 323° Northwest 414 476 36,000  Level FlightAware ADS-B
04:49PM 29.4232 -92.4294 318° Northwest 412 474 36,000  Level FlightAware ADS-B
04:49PM 29.4307 -92.4371 295° West 410 472 36,000  Level FlightAware ADS-B
04:50PM 29.4588 -92.5059 274° West 411 473 36,000  Level FlightAware ADS-B
04:50PM 29.4596 -92.5196 273° West 412 474 36,000 -360 Level FlightAware ADS-B
04:50PM 29.4627 -92.5852 273° West 407 468 35,800 -900 Descending FlightAware ADS-B
04:51PM 29.4657 -92.6495 273° West 396 456 35,100 -1,380 Descending FlightAware ADS-B
04:51PM 29.4686 -92.7137 273° West 411 473 34,400 -1,500 Descending FlightAware ADS-B
04:52PM 29.4716 -92.7794 273° West 412 474 33,600 -1,500 Descending FlightAware ADS-B
04:52PM 29.4745 -92.8457 273° West 422 486 32,900 -1,500 Descending FlightAware ADS-B
04:53PM 29.4776 -92.9153 273° West 430 495 32,100 -1,620 Descending FlightAware ADS-B
04:53PM 29.4807 -92.9853 273° West 429 494 31,300 -1,560 Descending FlightAware ADS-B
04:54PM 29.4841 -93.0649 273° West 424 488 30,400 -1,560 Descending FlightAware ADS-B
04:54PM 29.4872 -93.1340 273° West 426 490 29,600 -1,620 Descending FlightAware ADS-B
04:55PM 29.4901 -93.2023 273° West 421 484 28,800 -1,620 Descending FlightAware ADS-B
04:55PM 29.4930 -93.2691 273° West 416 479 28,000 -1,800 Descending FlightAware ADS-B
04:56PM 29.4958 -93.3358 273° West 410 472 27,000 -1,920 Descending FlightAware ADS-B
04:56PM 29.4983 -93.4005 273° West 404 465 26,100 -1,920 Descending FlightAware ADS-B
04:57PM 29.5012 -93.4675 272° West 404 465 25,100 -1,980 Descending FlightAware ADS-B
04:57PM 29.5036 -93.5315 273° West 398 458 24,100 -1,980 Descending FlightAware ADS-B
04:58PM 29.5063 -93.5973 272° West 396 456 23,100 -1,920 Descending FlightAware ADS-B
04:58PM 29.5087 -93.6642 273° West 393 452 22,100 -1,980 Descending FlightAware ADS-B
04:59PM 29.5111 -93.7265 273° West 386 444 21,100 -1,980 Descending FlightAware ADS-B
04:59PM 29.5135 -93.7885 273° West 381 438 20,100 -1,920 Descending FlightAware ADS-B
05:00PM 29.5159 -93.8495 273° West 377 434 19,200 -1,920 Descending FlightAware ADS-B
05:00PM 29.5182 -93.9094 273° West 375 432 18,200 -1,920 Descending FlightAware ADS-B
05:01PM 29.5202 -93.9615 272° West 374 430 17,400 -1,800 Descending FlightAware ADS-B
05:01PM 29.5223 -94.0207 272° West 368 423 16,500 -1,920 Descending FlightAware ADS-B
05:02PM 29.5243 -94.0793 272° West 365 420 15,500 -2,040 Descending FlightAware ADS-B
05:02PM 29.5262 -94.1374 272° West 362 417 14,500 -1,920 Descending FlightAware ADS-B
05:03PM 29.5280 -94.1958 272° West 361 415 13,600 -1,380 Descending FlightAware ADS-B
05:03PM 29.5302 -94.2553 273° West 349 402 13,100 -480 Descending FlightAware ADS-B
05:04PM 29.5325 -94.3132 275° West 344 396 13,100  Level FlightAware ADS-B
05:04PM 29.5337 -94.3291 281° West 343 395 13,100  Level FlightAware ADS-B
05:04PM 29.5358 -94.3418 287° West 341 392 13,100  Level FlightAware ADS-B
05:04PM 29.5405 -94.3593 293° West 339 390 13,100 -660 Level FlightAware ADS-B
05:05PM 29.5454 -94.3728 296° West 337 388 12,900 -1,740 Descending FlightAware ADS-B
05:05PM 29.5660 -94.4207 296° West 332 382 12,000 -1,920 Descending FlightAware ADS-B
05:06PM 29.5863 -94.4679 296° West 328 377 11,000 -1,500 Descending FlightAware ADS-B
05:06PM 29.6061 -94.5145 296° West 312 359 10,500 -900 Descending FlightAware ADS-B
05:07PM 29.6247 -94.5582 296° West 292 336 10,100 -960 Descending FlightAware ADS-B
05:07PM 29.6337 -94.5790 296° West 287 330 9,800 -1,200 Descending FlightAware ADS-B
05:07PM 29.6424 -94.5999 296° West 283 326 9,500 -1,380 Descending FlightAware ADS-B
05:07PM 29.6512 -94.6206 296° West 282 325 9,100 -1,440 Descending FlightAware ADS-B
05:08PM 29.6598 -94.6408 296° West 280 322 8,800 -1,500 Descending FlightAware ADS-B
05:08PM 29.6675 -94.6587 296° West 280 322 8,400 -1,500 Descending FlightAware ADS-B
05:08PM 29.6762 -94.6792 296° West 279 321 8,100 -1,380 Descending FlightAware ADS-B
05:08PM 29.6848 -94.6995 296° West 278 320 7,700 -1,620 Descending FlightAware ADS-B
05:09PM 29.6933 -94.7196 296° West 276 318 7,300 -1,380 Descending FlightAware ADS-B
05:09PM 29.7019 -94.7400 296° West 276 318 7,000 -1,320 Descending FlightAware ADS-B
05:09PM 29.7108 -94.7610 296° West 277 319 6,600 -1,560 Descending FlightAware ADS-B
05:09PM 29.7192 -94.7808 296° West 277 319 6,200 -1,020 Descending FlightAware ADS-B
05:10PM 29.7278 -94.8010 296° West 275 316 6,100 -240 Descending FlightAware ADS-B
05:10PM 29.7364 -94.8212 296° West 273 314 6,100  Level FlightAware ADS-B
05:10PM 29.7452 -94.8419 296° West 272 313 6,100  Level FlightAware ADS-B
05:10PM 29.7534 -94.8613 296° West 271 312 6,100  Level FlightAware ADS-B
05:11PM 29.7617 -94.8810 296° West 272 313 6,100  Level FlightAware ADS-B
05:11PM 29.7702 -94.9010 296° West 272 313 6,100  Level FlightAware ADS-B
05:11PM 29.7784 -94.9206 296° West 273 314 6,100  Level FlightAware ADS-B
05:11PM 29.7866 -94.9400 296° West 271 312 6,100  Level FlightAware ADS-B
05:12PM 29.7951 -94.9600 296° West 271 312 6,100  Level FlightAware ADS-B
05:12PM 29.8035 -94.9799 296° West 275 316 6,100  Level FlightAware ADS-B
05:12PM 29.8120 -95.0000 296° West 274 315 6,100  Level FlightAware ADS-B
05:12PM 29.8204 -95.0202 296° West 273 314 6,100  Level FlightAware ADS-B
05:13PM 29.8288 -95.0401 296° West 272 313 6,100  Level FlightAware ADS-B
05:13PM 29.8372 -95.0599 296° West 273 314 6,100  Level FlightAware ADS-B
05:13PM 29.8426 -95.0728 296° West 274 315 6,100  Level FlightAware ADS-B
05:13PM 29.8450 -95.0786 296° West 275 316 6,100  Level FlightAware ADS-B
05:14PM 29.8540 -95.1001 296° West 275 316 6,100  Level FlightAware ADS-B
05:14PM 29.8609 -95.1166 296° West 274 315 6,100  Level FlightAware ADS-B
05:14PM 29.8694 -95.1367 296° West 275 316 6,100  Level FlightAware ADS-B
05:14PM 29.8780 -95.1572 296° West 275 316 6,100  Level FlightAware ADS-B
05:14PM 29.8866 -95.1777 295° West 274 315 6,100  Level FlightAware ADS-B
05:15PM 29.8925 -95.1920 293° West 274 315 6,100  Level FlightAware ADS-B
05:15PM 29.8944 -95.1972 288° West 274 315 6,100  Level FlightAware ADS-B
05:15PM 29.8958 -95.2021 285° West 275 316 6,100  Level FlightAware ADS-B
05:15PM 29.8974 -95.2089 280° West 276 318 6,100  Level FlightAware ADS-B
05:15PM 29.8982 -95.2139 278° West 276 318 6,100  Level FlightAware ADS-B
05:15PM 29.8989 -95.2199 275° West 277 319 6,100  Level FlightAware ADS-B
05:15PM 29.8992 -95.2242 271° West 277 319 6,100  Level FlightAware ADS-B
05:15PM 29.8993 -95.2312 270° West 276 318 6,100  Level FlightAware ADS-B
05:15PM 29.8994 -95.2671 270° West 267 307 6,100  Level FlightAware ADS-B
05:16PM 29.8995 -95.2867 271° West 239 275 6,100  Level FlightAware ADS-B
05:16PM 29.8997 -95.3067 270° West 234 269 6,100  Level FlightAware ADS-B
05:16PM 29.8999 -95.3422 270° West 234 269 6,100  Level FlightAware ADS-B
05:17PM 29.9000 -95.3686 271° West 233 268 6,100  Level FlightAware ADS-B
05:17PM 29.9002 -95.3888 270° West 233 268 6,100  Level FlightAware ADS-B
05:17PM 29.9003 -95.4076 270° West 232 267 6,100  Level FlightAware ADS-B
05:18PM 29.9003 -95.4274 270° West 234 269 6,100  Level FlightAware ADS-B
05:18PM 29.9003 -95.4443 271° West 233 268 6,100  Level FlightAware ADS-B
05:18PM 29.9004 -95.4576 270° West 236 272 6,100  Level FlightAware ADS-B
05:18PM 29.9005 -95.4802 270° West 236 272 6,100  Level FlightAware ADS-B
05:19PM 29.9006 -95.4993 271° West 238 274 6,100  Level FlightAware ADS-B
05:19PM 29.9008 -95.5165 270° West 237 273 6,100  Level FlightAware ADS-B
05:19PM 29.9008 -95.5353 270° West 236 272 6,100  Level FlightAware ADS-B
05:19PM 29.9008 -95.5476 270° West 233 268 6,100  Level FlightAware ADS-B
05:19PM 29.9008 -95.5617 270° West 232 267 6,100 -240 Level FlightAware ADS-B
05:20PM 29.9009 -95.5824 271° West 232 267 6,000 -1,020 Descending FlightAware ADS-B
05:20PM 29.9011 -95.6013 270° West 236 272 5,600 -1,560 Descending FlightAware ADS-B
05:20PM 29.9011 -95.6205 270° West 241 277 5,200 -1,020 Descending FlightAware ADS-B
05:20PM 29.9012 -95.6405 270° West 234 269 5,100 -240 Descending FlightAware ADS-B
05:21PM 29.9012 -95.6523 273° West 233 268 5,100  Level FlightAware ADS-B
05:21PM 29.9014 -95.6566 279° West 233 268 5,100  Level FlightAware ADS-B
05:21PM 29.9019 -95.6604 286° West 233 268 5,100  Level FlightAware ADS-B
05:21PM 29.9029 -95.6644 292° West 234 269 5,100  Level FlightAware ADS-B
05:21PM 29.9041 -95.6679 297° West 234 269 5,100  Level FlightAware ADS-B
05:21PM 29.9057 -95.6716 306° West 236 272 5,100  Level FlightAware ADS-B
05:21PM 29.9083 -95.6758 313° West 237 273 5,100  Level FlightAware ADS-B
05:21PM 29.9106 -95.6786 319° Northwest 237 273 5,100  Level FlightAware ADS-B
05:21PM 29.9133 -95.6813 328° Northwest 236 272 5,100  Level FlightAware ADS-B
05:21PM 29.9175 -95.6843 340° North 236 272 5,100  Level FlightAware ADS-B
05:21PM 29.9234 -95.6868 349° North 233 268 5,100  Level FlightAware ADS-B
05:21PM 29.9295 -95.6881 353° North 234 269 5,100  Level FlightAware ADS-B
05:21PM 29.9384 -95.6893 354° North 235 270 5,100  Level FlightAware ADS-B
05:22PM 29.9522 -95.6911 354° North 236 272 5,100  Level FlightAware ADS-B
05:22PM 29.9638 -95.6926 357° North 233 268 5,100  Level FlightAware ADS-B
05:22PM 29.9671 -95.6928 North 232 267 5,100  Level FlightAware ADS-B
05:22PM 29.9704 -95.6926 10° North 231 266 5,100  Level FlightAware ADS-B
05:22PM 29.9751 -95.6916 20° North 232 267 5,100  Level FlightAware ADS-B
05:22PM 29.9794 -95.6898 29° Northeast 231 266 5,100  Level FlightAware ADS-B
05:22PM 29.9827 -95.6877 35° Northeast 229 264 5,100  Level FlightAware ADS-B
05:22PM 29.9860 -95.6850 42° Northeast 229 264 5,100  Level FlightAware ADS-B
05:22PM 29.9887 -95.6822 49° Northeast 228 262 5,100  Level FlightAware ADS-B
05:22PM 29.9908 -95.6794 52° Northeast 229 264 5,100  Level FlightAware ADS-B
05:22PM 29.9949 -95.6734 57° Northeast 230 265 5,100  Level FlightAware ADS-B
05:23PM 30.0007 -95.6632 66° East 229 264 5,100  Level FlightAware ADS-B
05:23PM 30.0022 -95.6594 72° East 227 261 5,100  Level FlightAware ADS-B
05:23PM 30.0033 -95.6556 80° East 225 259 5,100 -780 Level FlightAware ADS-B
05:23PM 30.0040 -95.6509 89° East 225 259 5,000 -780 Descending FlightAware ADS-B
05:23PM 30.0041 -95.6454 98° East 224 258 5,000 -720 Level FlightAware ADS-B
05:23PM 30.0035 -95.6403 106° East 224 258 4,900 -1,500 Descending FlightAware ADS-B
05:23PM 30.0025 -95.6364 113° Southeast 224 258 4,800 -1,500 Descending FlightAware ADS-B
05:23PM 30.0004 -95.6308 121° Southeast 225 259 4,700 -1,380 Descending FlightAware ADS-B
05:23PM 29.9984 -95.6270 120° Southeast 225 259 4,600 -1,800 Descending FlightAware ADS-B
05:23PM 29.9952 -95.6206 109° East 224 258 4,400 -1,200 Descending FlightAware ADS-B
05:23PM 29.9938 -95.6158 102° East 223 257 4,400 -900 Level FlightAware ADS-B
05:23PM 29.9931 -95.6119 96° East 222 255 4,300 -900 Descending FlightAware ADS-B
05:23PM 29.9927 -95.6072 92° East 220 253 4,300 -780 Level FlightAware ADS-B
05:23PM 29.9926 -95.6035 90° East 218 251 4,200 -720 Descending FlightAware ADS-B
05:24PM 29.9926 -95.5874 88° East 213 245 4,100 -960 Descending FlightAware ADS-B
05:24PM 29.9929 -95.5741 89° East 214 246 3,800 -1,380 Descending FlightAware ADS-B
05:24PM 29.9931 -95.5563 90° East 215 247 3,500 -1,200 Descending FlightAware ADS-B
05:24PM 29.9932 -95.5378 90° East 213 245 3,200 -1,140 Descending FlightAware ADS-B
05:25PM 29.9932 -95.5201 90° East 202 232 2,900 -1,140 Descending FlightAware ADS-B
05:25PM 29.9932 -95.5039 90° East 199 229 2,600 -1,020 Descending FlightAware ADS-B
05:25PM 29.9932 -95.4875 90° East 194 223 2,400 -1,020 Descending FlightAware ADS-B
05:25PM 29.9932 -95.4720 90° East 185 213 2,100 -1,020 Descending FlightAware ADS-B
05:26PM 29.9933 -95.4571 90° East 176 203 1,900 -900 Descending FlightAware ADS-B
05:26PM 29.9934 -95.4392 91° East 174 200 1,600 -960 Descending FlightAware ADS-B
05:26PM 29.9933 -95.4279 89° East 157 181 1,400 -840 Descending FlightAware ADS-B
05:27PM 29.9934 -95.4153 89° East 154 177 1,200 -840 Descending FlightAware ADS-B
05:27PM 29.9935 -95.4085 90° East 152 175 1,100 -720 Descending FlightAware ADS-B
05:27PM 29.9935 -95.4011 89° East 150 173 1,000 -840 Descending FlightAware ADS-B
05:27PM 29.9936 -95.3906 92° East 149 171 800 -1,020 Descending FlightAware ADS-B
05:27PM 29.9935 -95.3865 91° East 149 171 700 -900 Descending FlightAware ADS-B
05:27PM 29.9934 -95.3736 89° East 148 170 500 -600 Descending FlightAware ADS-B
05:28PM 29.9935 -95.3613 89° East 141 162 400 -420 Descending FlightAware ADS-B